Home   Weather   USA   Chandler   Past weeks
Flag for USA

Past Weather in Chandler, Arizona, USA — Yesterday and Last 2 Weeks

Currently: 60 °F. Clear. (Weather station: Phoenix–Mesa Gateway Airport, USA). See more current weather

Past Weather in Chandler — Graph

°F

Chandler Temperature Yesterday

Maximum temperature yesterday: 84 °F (at 5:53 pm)
Minimum temperature yesterday: 52 °F (at 4:35 am)
Average temperature yesterday: 65 °F

High & Low Weather Summary for the Past Weeks

 TemperatureHumidityPressure
High91 °F (Apr 11, 4:54 pm)93% (Apr 2, 5:52 am)30.23 "Hg (Apr 2, 5:52 am)
Low41 °F (Apr 5, 7:48 pm)7% (Apr 12, 2:55 pm)29.72 "Hg (Apr 4, 6:47 pm)
Average63 °F38%29.97 "Hg
* Reported Apr 2 12:15 am — Apr 17 12:35 am, Chandler. Weather by CustomWeather, © 2024

Note: Actual official high and low records may vary slightly from our data, if they occured in-between our weather recording intervals... More about our weather records

Chandler Weather History for the Previous 24 Hours

Scroll right to see more
 ConditionsComfort  
Time TempWeatherWind HumidityBarometerVisibility
12:35 am
Wed, Apr 17
61 °FClear.8 mph37%29.96 "Hg10 mi
12:15 am61 °FClear.6 mph35%29.96 "Hg10 mi
11:47 pm
Tue, Apr 16
63 °FClear.8 mph34%29.96 "Hg10 mi
10:55 pm68 °FClear.7 mph28%29.96 "Hg10 mi
9:53 pm72 °FClear.No wind22%29.95 "Hg10 mi
8:49 pm73 °FClear.5 mph20%29.94 "Hg10 mi
7:50 pm75 °FClear.6 mph18%29.91 "Hg10 mi
6:50 pm81 °FSunny.9 mph15%29.90 "Hg10 mi
5:53 pm84 °FSunny.8 mph13%29.89 "Hg10 mi
4:48 pm82 °FSunny.9 mph14%29.90 "Hg10 mi
3:52 pm82 °FSunny.7 mph14%29.91 "Hg10 mi
2:52 pm82 °FSunny.8 mph12%29.93 "Hg10 mi
1:50 pm81 °FSunny.10 mph15%29.95 "Hg10 mi
12:58 pm79 °FSunny.5 mph17%29.97 "Hg10 mi
11:57 am77 °FSunny.5 mph18%29.99 "Hg10 mi
10:53 am73 °FSunny.8 mph20%30.02 "Hg10 mi
9:55 am72 °FSunny.5 mph25%30.03 "Hg10 mi
8:47 am66 °FSunny.6 mph30%30.03 "Hg10 mi
7:52 am63 °FSunny.6 mph34%30.04 "Hg10 mi
5:47 am52 °FClear.9 mph50%30.01 "Hg10 mi
4:57 am54 °FClear.8 mph47%30.00 "Hg10 mi
4:35 am52 °FClear.8 mph50%30.00 "Hg10 mi
4:15 am52 °FClear.7 mph50%30.00 "Hg10 mi
3:55 am52 °FClear.6 mph50%29.99 "Hg10 mi
3:35 am52 °FClear.7 mph50%29.99 "Hg10 mi
3:15 am53 °FClear.7 mph49%29.99 "Hg10 mi
2:55 am53 °FClear.7 mph47%29.99 "Hg10 mi
2:35 am53 °FClear.7 mph47%29.99 "Hg10 mi
2:15 am53 °FClear.6 mph47%29.99 "Hg10 mi
1:55 am55 °FClear.8 mph45%29.99 "Hg10 mi
1:15 am55 °FClear.9 mph43%30.00 "Hg10 mi
Weather by CustomWeather, © 2024

See weather overview